Time;durP1;ratioP1;P1;durP2;ratioP2;P2;SDS_P1;SDS_P2;PMS_P1;PMS_P2;Temp;Humidity;BMP_temperature;BMP_pressure;BME280_temperature;BME280_humidity;BME280_pressure;Samples;Min_cycle;Max_cycle;Signal;HPM_P1;HPM_P2
2022/11/14 00:00:12;;;;;;;;;3.00;3.00;;;;;16.29;53.52;100033.75;5036934;28;45500;-77
2022/11/14 00:02:38;;;;;;;;;4.33;3.00;;;;;16.28;53.82;100031.97;5036051;28;45531;-77
2022/11/14 00:05:05;;;;;;;;;3.00;2.33;;;;;16.24;53.87;100027.59;5036490;28;45437;-77
2022/11/14 00:07:32;;;;;;;;;4.00;2.33;;;;;16.22;53.75;100031.09;5035887;28;46217;-77
2022/11/14 00:09:57;;;;;;;;;2.67;2.00;;;;;16.16;53.85;100015.31;5036187;28;45235;-77
2022/11/14 00:12:23;;;;;;;;;2.00;2.00;;;;;16.08;54.19;100005.66;5036118;28;45320;-76
2022/11/14 00:14:49;;;;;;;;;3.00;3.00;;;;;16.15;53.93;100019.69;5036734;28;46049;-76
2022/11/14 00:17:14;;;;;;;;;4.33;3.00;;;;;16.16;54.02;100024.09;5036209;28;46513;-77
2022/11/14 00:19:40;;;;;;;;;2.00;2.00;;;;;16.14;54.00;100023.22;5035900;28;45463;-77
2022/11/14 00:22:05;;;;;;;;;2.00;2.00;;;;;16.16;54.10;100020.59;5035992;28;45388;-77
2022/11/14 00:24:31;;;;;;;;;3.67;3.00;;;;;16.18;54.19;100026.72;5036293;28;45490;-77
2022/11/14 00:26:56;;;;;;;;;3.67;3.00;;;;;16.14;54.16;100011.81;5035961;28;45359;-77
2022/11/14 00:29:22;;;;;;;;;4.00;3.00;;;;;16.21;53.81;100018.78;5035612;28;45446;-76
2022/11/14 00:31:47;;;;;;;;;0.67;0.00;;;;;16.24;53.92;100022.31;5033523;28;45391;-77
2022/11/14 00:34:13;;;;;;;;;3.00;3.00;;;;;16.16;54.05;100010.91;5018094;28;45592;-77
2022/11/14 00:36:39;;;;;;;;;3.00;3.00;;;;;16.25;53.94;100021.44;5035627;28;45353;-78
2022/11/14 00:39:04;;;;;;;;;5.00;4.00;;;;;16.27;53.86;100022.31;5035663;28;45366;-78
2022/11/14 00:41:31;;;;;;;;;3.00;2.67;;;;;16.28;53.82;100010.00;5035858;28;45463;-76
2022/11/14 00:43:57;;;;;;;;;3.00;3.00;;;;;16.29;53.81;100019.66;5036027;28;45286;-78
2022/11/14 00:46:22;;;;;;;;;3.00;2.00;;;;;16.30;53.71;100021.44;5035459;28;45439;-75
2022/11/14 00:48:48;;;;;;;;;5.00;3.67;;;;;16.24;53.81;100006.50;5035965;28;45305;-77
2022/11/14 00:51:13;;;;;;;;;3.00;3.00;;;;;16.30;54.04;100016.16;5035553;28;45354;-77
2022/11/14 00:53:39;;;;;;;;;4.00;3.75;;;;;16.30;53.75;100006.47;5035953;28;45850;-76
2022/11/14 00:56:05;;;;;;;;;2.00;2.00;;;;;16.28;53.61;100007.38;5034122;28;45529;-77
2022/11/14 00:58:30;;;;;;;;;4.00;3.00;;;;;16.34;53.50;100015.25;5035461;28;45495;-77
2022/11/14 01:00:56;;;;;;;;;4.00;2.67;;;;;16.37;53.12;100007.34;5017014;28;45377;-78
2022/11/14 01:03:21;;;;;;;;;2.33;2.00;;;;;16.39;53.04;100010.84;5034389;28;45564;-77
2022/11/14 01:05:49;;;;;;;;;4.00;3.00;;;;;16.49;53.00;100016.97;5014767;28;46532;-77
2022/11/14 01:08:17;;;;;;;;;4.00;3.00;;;;;16.41;53.03;100006.47;5017773;28;45513;-78
2022/11/14 01:10:47;;;;;;;;;3.00;2.00;;;;;16.53;53.10;100015.22;5035335;28;45733;-77
2022/11/14 01:13:14;;;;;;;;;3.00;3.00;;;;;16.53;52.98;100016.09;5013672;28;45339;-77
2022/11/14 01:15:41;;;;;;;;;3.00;2.67;;;;;16.54;52.93;100007.31;5035116;28;45395;-78
2022/11/14 01:18:10;;;;;;;;;3.00;2.00;;;;;16.56;52.89;100005.53;5035101;28;45486;-77
2022/11/14 01:20:39;;;;;;;;;3.00;2.33;;;;;16.60;52.74;99996.75;5035295;28;45533;-77
2022/11/14 01:23:05;;;;;;;;;3.00;3.00;;;;;16.65;52.26;99994.06;5035255;28;45455;-77
2022/11/14 01:25:32;;;;;;;;;2.33;2.00;;;;;16.70;52.13;99987.91;5035093;28;45554;-77
2022/11/14 01:27:58;;;;;;;;;3.00;3.00;;;;;16.72;52.24;99989.66;5025650;28;45294;-77
2022/11/14 01:30:23;;;;;;;;;2.33;2.33;;;;;16.65;52.38;99988.78;5035044;28;45589;-77
2022/11/14 01:32:49;;;;;;;;;3.33;3.00;;;;;16.64;52.39;99993.19;5035655;28;45438;-78
2022/11/14 01:35:14;;;;;;;;;3.00;2.00;;;;;16.67;52.36;99994.94;5034988;28;46079;-77
2022/11/14 01:37:40;;;;;;;;;2.00;2.00;;;;;16.64;52.53;100008.16;5034892;28;45424;-76
2022/11/14 01:40:06;;;;;;;;;2.00;2.00;;;;;16.61;52.38;100000.25;5025339;28;45505;-78
2022/11/14 01:42:32;;;;;;;;;2.67;2.00;;;;;16.61;52.52;100001.16;5035115;28;45442;-77
2022/11/14 01:44:58;;;;;;;;;3.00;3.00;;;;;16.58;52.36;100000.28;5034771;28;45316;-78
2022/11/14 01:47:29;;;;;;;;;5.00;3.00;;;;;16.56;52.67;99995.00;5025040;28;45379;-78
2022/11/14 01:49:58;;;;;;;;;3.33;3.33;;;;;16.53;52.67;100000.25;5035084;28;45396;-78
2022/11/14 01:52:27;;;;;;;;;2.00;2.00;;;;;16.53;52.65;100000.25;5034839;28;45484;-77
2022/11/14 01:54:59;;;;;;;;;4.00;3.00;;;;;16.49;52.95;100004.69;5034521;28;45517;-77
2022/11/14 01:57:47;;;;;;;;;2.67;2.67;;;;;16.43;53.13;100006.44;5034607;28;45415;-78
2022/11/14 02:00:13;;;;;;;;;4.00;3.00;;;;;16.37;52.78;100009.09;5031321;28;45590;-75
2022/11/14 02:02:38;;;;;;;;;1.00;1.00;;;;;16.44;53.14;100010.84;5034953;28;45535;-76
2022/11/14 02:05:10;;;;;;;;;3.00;2.33;;;;;16.46;52.97;100009.09;5024817;28;46748;-77
2022/11/14 02:07:39;;;;;;;;;3.00;3.00;;;;;16.48;52.66;100008.19;5034715;28;45614;-78
2022/11/14 02:10:09;;;;;;;;;3.00;3.00;;;;;16.42;52.92;100008.22;5034483;28;45874;-78
2022/11/14 02:12:36;;;;;;;;;3.00;2.33;;;;;16.46;52.63;100015.22;5035270;28;45499;-77
2022/11/14 02:15:03;;;;;;;;;2.67;2.67;;;;;16.47;52.83;100006.47;5037833;28;45580;-77
2022/11/14 02:17:29;;;;;;;;;1.33;1.33;;;;;16.44;52.85;99995.91;5035453;28;45463;-77
2022/11/14 02:20:06;;;;;;;;;3.00;2.00;;;;;16.49;52.63;100004.69;5038416;28;45786;-77
2022/11/14 02:22:32;;;;;;;;;4.00;2.67;;;;;16.47;52.65;100000.28;5035988;28;45385;-79
2022/11/14 02:24:57;;;;;;;;;3.00;3.00;;;;;16.42;52.74;99995.03;5037690;28;45371;-77
2022/11/14 02:27:23;;;;;;;;;2.33;2.33;;;;;16.47;52.68;99995.00;5019816;28;45390;-78
2022/11/14 02:29:49;;;;;;;;;3.00;3.00;;;;;16.46;52.85;100009.97;5038240;28;45498;-77
2022/11/14 02:32:14;;;;;;;;;3.33;3.33;;;;;16.52;52.75;100008.19;5038447;28;46262;-77
2022/11/14 02:34:40;;;;;;;;;2.00;2.00;;;;;16.47;52.85;100009.09;5037554;28;46087;-77
2022/11/14 02:37:06;;;;;;;;;3.00;3.00;;;;;16.57;52.65;100017.81;5037685;28;45458;-77
2022/11/14 02:39:31;;;;;;;;;2.00;1.67;;;;;16.58;52.55;100010.81;5037565;28;45312;-76
2022/11/14 02:41:57;;;;;;;;;2.00;2.00;;;;;16.59;52.71;100002.91;5037743;28;45151;-77
2022/11/14 02:44:23;;;;;;;;;3.33;3.00;;;;;16.53;52.75;99994.13;5037372;28;45473;-77
2022/11/14 02:46:48;;;;;;;;;3.00;3.00;;;;;16.60;52.71;100007.28;5035137;28;45313;-78
2022/11/14 02:49:14;;;;;;;;;3.00;3.00;;;;;16.59;52.83;100008.19;5037501;28;45304;-76
2022/11/14 02:51:40;;;;;;;;;3.00;2.67;;;;;16.53;52.86;99996.75;5037556;28;45339;-77
2022/11/14 02:54:06;;;;;;;;;3.00;3.00;;;;;16.54;52.65;99998.53;5037268;28;46074;-78
2022/11/14 02:56:31;;;;;;;;;2.00;2.00;;;;;16.61;52.48;100010.78;5037189;28;45417;-77
2022/11/14 02:58:57;;;;;;;;;3.00;2.00;;;;;16.65;52.40;99997.63;5037302;28;45423;-76
2022/11/14 03:01:23;;;;;;;;;2.00;2.00;;;;;16.62;52.61;99989.69;5037471;28;45498;-77
2022/11/14 03:03:48;;;;;;;;;2.00;2.00;;;;;16.67;52.36;99997.59;5033587;28;46162;-78
2022/11/14 03:06:14;;;;;;;;;3.33;3.00;;;;;16.68;52.48;99999.34;5038276;28;45420;-77
2022/11/14 03:08:39;;;;;;;;;3.33;2.33;;;;;16.70;52.30;99993.19;5038863;28;45430;-75
2022/11/14 03:11:07;;;;;;;;;3.00;3.00;;;;;16.73;52.09;99994.03;5038915;28;45626;-77
2022/11/14 03:13:32;;;;;;;;;3.67;3.00;;;;;16.74;51.98;99983.50;5038751;28;45477;-76
2022/11/14 03:16:05;;;;;;;;;2.67;2.00;;;;;16.80;52.16;99991.38;5020604;28;45166;-78
2022/11/14 03:18:30;;;;;;;;;2.00;2.00;;;;;16.83;52.20;99990.50;5038637;28;45515;-77
2022/11/14 03:20:56;;;;;;;;;4.33;2.00;;;;;16.86;52.02;99998.44;5038654;28;45268;-78
2022/11/14 03:23:21;;;;;;;;;4.00;3.00;;;;;16.81;52.02;99989.63;5037682;28;45789;-76
2022/11/14 03:25:47;;;;;;;;;3.00;3.00;;;;;16.91;52.10;100001.94;5038863;28;45289;-78
2022/11/14 03:28:12;;;;;;;;;4.00;4.00;;;;;16.92;52.00;100002.81;5038481;28;45249;-78
2022/11/14 03:30:38;;;;;;;;;3.00;3.00;;;;;16.96;51.59;100013.31;5038792;28;45486;-78
2022/11/14 03:33:03;;;;;;;;;3.67;3.33;;;;;16.88;51.69;99994.88;5020273;28;47881;-77
2022/11/14 03:35:29;;;;;;;;;4.00;3.00;;;;;16.98;51.86;100018.59;5038095;28;45399;-77
2022/11/14 03:37:54;;;;;;;;;3.33;3.00;;;;;17.00;51.66;100011.56;5036958;28;45490;-78
2022/11/14 03:40:20;;;;;;;;;4.00;4.00;;;;;17.02;51.71;100000.09;5038786;28;46400;-77
2022/11/14 03:42:45;;;;;;;;;4.00;3.00;;;;;16.95;51.46;99994.84;5038267;28;45989;-77
2022/11/14 03:45:11;;;;;;;;;4.00;3.00;;;;;17.02;51.64;100020.34;5038031;28;45454;-77
2022/11/14 03:47:36;;;;;;;;;3.33;3.33;;;;;17.04;51.54;100021.22;5038169;28;45978;-77
2022/11/14 03:50:02;;;;;;;;;3.00;3.00;;;;;17.12;51.53;100032.59;5038531;28;45325;-78
2022/11/14 03:52:28;;;;;;;;;3.00;3.00;;;;;17.07;51.37;100022.09;5037806;28;45510;-77
2022/11/14 03:54:53;;;;;;;;;3.33;2.00;;;;;17.18;51.51;100045.75;5019952;28;45352;-77
2022/11/14 03:57:19;;;;;;;;;3.00;3.00;;;;;17.24;51.31;100047.50;5038510;28;45284;-78
2022/11/14 03:59:44;;;;;;;;;3.00;2.33;;;;;17.28;51.14;100049.25;5038057;28;45480;-77
2022/11/14 04:02:10;;;;;;;;;4.67;3.33;;;;;17.33;51.31;100057.13;5037798;28;45973;-77
2022/11/14 04:04:35;;;;;;;;;3.00;3.00;;;;;17.34;51.30;100049.19;5037761;28;45478;-78
2022/11/14 04:07:00;;;;;;;;;5.00;3.00;;;;;17.35;51.30;100055.34;5037845;28;45463;-78
2022/11/14 04:09:26;;;;;;;;;3.00;2.33;;;;;17.38;51.06;100058.00;5037849;28;45463;-78
2022/11/14 04:11:51;;;;;;;;;2.00;2.00;;;;;17.40;51.20;100057.09;5037503;28;47617;-77
2022/11/14 04:14:17;;;;;;;;;3.67;3.67;;;;;17.42;51.20;100042.09;5037787;28;45398;-78
2022/11/14 04:16:42;;;;;;;;;3.00;3.00;;;;;17.44;51.21;100061.47;5036364;28;45359;-77
2022/11/14 04:19:08;;;;;;;;;3.00;3.00;;;;;17.44;51.18;100060.59;5037789;28;45369;-76
2022/11/14 04:21:33;;;;;;;;;3.00;2.00;;;;;17.47;51.15;100065.88;5037563;28;46020;-78
2022/11/14 04:23:59;;;;;;;;;3.00;3.00;;;;;17.40;50.79;100064.13;5037659;28;45283;-77
2022/11/14 04:26:24;;;;;;;;;3.00;3.00;;;;;17.47;51.25;100072.03;5037676;28;45538;-76
2022/11/14 04:28:50;;;;;;;;;3.00;3.00;;;;;17.48;51.26;100070.25;5020062;28;45609;-77
2022/11/14 04:31:15;;;;;;;;;5.33;3.67;;;;;17.49;51.32;100067.59;5036170;28;45598;-78
2022/11/14 04:33:41;;;;;;;;;2.67;2.67;;;;;17.48;51.29;100071.13;5037505;28;45361;-77
2022/11/14 04:36:07;;;;;;;;;4.00;4.00;;;;;17.42;51.61;100063.22;5035187;28;45416;-77
2022/11/14 04:38:32;;;;;;;;;3.00;3.00;;;;;17.41;51.56;100072.06;5037587;28;45411;-77
2022/11/14 04:40:58;;;;;;;;;2.67;2.67;;;;;17.41;52.04;100071.19;5019225;28;46603;-77
2022/11/14 04:43:23;;;;;;;;;3.00;3.00;;;;;17.41;51.88;100073.81;5037560;28;45575;-78
2022/11/14 04:45:49;;;;;;;;;4.67;3.67;;;;;17.37;52.01;100053.56;5037381;28;45477;-77
2022/11/14 04:48:14;;;;;;;;;2.67;2.00;;;;;17.38;52.55;100072.06;5037565;28;45226;-78
2022/11/14 04:50:40;;;;;;;;;5.00;4.00;;;;;17.36;52.39;100070.31;5037122;28;46118;-78
2022/11/14 04:53:05;;;;;;;;;4.00;4.00;;;;;17.36;52.32;100067.69;5037426;28;45408;-78
2022/11/14 04:55:31;;;;;;;;;3.00;3.00;;;;;17.39;52.24;100051.81;5037041;28;45451;-77
2022/11/14 04:57:57;;;;;;;;;4.00;4.00;;;;;17.40;52.19;100058.84;5036085;28;45569;-75
2022/11/14 05:00:23;;;;;;;;;4.00;3.00;;;;;17.38;52.27;100055.34;5037340;28;45970;-77
2022/11/14 05:02:49;;;;;;;;;4.00;3.33;;;;;17.40;52.31;100056.22;5037007;28;45332;-77
2022/11/14 05:05:15;;;;;;;;;4.67;4.67;;;;;17.40;52.45;100065.00;5036847;28;45383;-77
2022/11/14 05:07:40;;;;;;;;;3.67;3.33;;;;;17.42;52.64;100063.22;5037387;28;45378;-77
2022/11/14 05:10:07;;;;;;;;;3.00;3.00;;;;;17.43;52.53;100064.13;5036980;28;46004;-77
2022/11/14 05:12:32;;;;;;;;;3.00;3.00;;;;;17.42;52.69;100065.88;5037133;28;45361;-77
2022/11/14 05:14:58;;;;;;;;;4.00;3.00;;;;;17.43;52.53;100064.13;5036938;28;45282;-77
2022/11/14 05:17:24;;;;;;;;;4.00;3.00;;;;;17.32;52.87;100044.81;5019449;28;45639;-77
2022/11/14 05:19:49;;;;;;;;;4.00;4.00;;;;;17.33;52.73;100052.75;5035297;28;45497;-77
2022/11/14 05:22:15;;;;;;;;;3.00;2.67;;;;;17.37;52.89;100048.28;5036873;28;45439;-77
2022/11/14 05:24:40;;;;;;;;;4.67;4.00;;;;;17.33;53.11;100054.47;5036883;28;45470;-78
2022/11/14 05:27:06;;;;;;;;;3.67;3.67;;;;;17.28;53.16;100058.03;5036908;28;45369;-76
2022/11/14 05:29:31;;;;;;;;;4.00;4.00;;;;;17.23;53.28;100061.56;5036639;28;46235;-77
2022/11/14 05:31:57;;;;;;;;;4.67;4.00;;;;;17.19;53.35;100068.66;5036841;28;45383;-76
2022/11/14 05:34:23;;;;;;;;;4.00;4.00;;;;;17.17;53.53;100064.25;5036573;28;45506;-76
2022/11/14 05:36:48;;;;;;;;;4.00;4.00;;;;;17.06;53.66;100051.97;5036972;28;45602;-77
2022/11/14 05:39:15;;;;;;;;;4.00;4.00;;;;;17.04;53.74;100063.44;5036434;28;45597;-76
2022/11/14 05:41:41;;;;;;;;;4.67;4.00;;;;;17.10;54.03;100074.81;5019971;28;45542;-77
2022/11/14 05:44:06;;;;;;;;;6.33;5.00;;;;;17.07;54.02;100080.13;5041789;28;45269;-77
2022/11/14 05:46:32;;;;;;;;;5.00;4.00;;;;;16.96;53.98;100060.81;5039588;28;45330;-77
2022/11/14 05:48:58;;;;;;;;;4.00;4.00;;;;;16.96;54.19;100066.09;5044718;28;45325;-76
2022/11/14 05:51:23;;;;;;;;;3.33;3.33;;;;;17.06;53.96;100073.09;5042603;28;45506;-77
2022/11/14 05:53:49;;;;;;;;;3.67;3.00;;;;;17.11;53.65;100078.38;5040307;28;45371;-77
2022/11/14 05:56:15;;;;;;;;;4.00;4.00;;;;;17.15;53.39;100084.50;5040430;28;45253;-78
2022/11/14 05:58:40;;;;;;;;;3.00;2.00;;;;;17.17;53.20;100086.25;5039954;28;45984;-77
2022/11/14 06:01:11;;;;;;;;;4.00;3.00;;;;;17.22;53.36;100087.09;5038815;28;45244;-78
2022/11/14 06:03:40;;;;;;;;;6.00;4.33;;;;;17.21;53.94;100081.81;5040028;28;45339;-77
2022/11/14 06:06:08;;;;;;;;;4.33;4.00;;;;;17.26;54.84;100099.41;5038444;28;45339;-78
2022/11/14 06:08:34;;;;;;;;;4.00;3.33;;;;;17.21;54.89;100100.28;5039581;28;46048;-77
2022/11/14 06:11:05;;;;;;;;;4.00;4.00;;;;;17.26;54.35;100109.94;5039723;28;45525;-78
2022/11/14 06:13:31;;;;;;;;;4.00;4.00;;;;;17.32;54.53;100124.03;5039715;28;45508;-77
2022/11/14 06:16:02;;;;;;;;;5.00;4.33;;;;;17.31;54.84;100128.44;5040008;28;45224;-78
2022/11/14 06:18:29;;;;;;;;;4.00;4.00;;;;;17.33;55.00;100141.59;5039773;28;46288;-78
2022/11/14 06:21:01;;;;;;;;;5.67;4.00;;;;;17.35;55.30;100147.75;5039465;28;45322;-77
2022/11/14 06:23:28;;;;;;;;;5.67;5.00;;;;;17.30;56.62;100156.56;5039969;28;45501;-78
2022/11/14 06:26:00;;;;;;;;;5.00;5.00;;;;;17.25;56.14;100150.44;5039668;28;45339;-78
2022/11/14 06:28:26;;;;;;;;;7.67;7.33;;;;;17.33;56.97;100165.38;5039352;28;45430;-77
2022/11/14 06:30:56;;;;;;;;;14.50;13.50;;;;;17.26;58.17;100152.19;5039215;28;46549;-78
2022/11/14 06:33:22;;;;;;;;;6.00;6.00;;;;;17.25;58.35;100171.56;5039127;28;45463;-76
2022/11/14 06:35:47;;;;;;;;;5.00;4.33;;;;;17.22;58.18;100168.06;5039227;28;45599;-78
2022/11/14 06:38:13;;;;;;;;;4.67;4.33;;;;;17.24;58.86;100185.63;5039185;28;45517;-78
2022/11/14 06:40:38;;;;;;;;;7.33;6.00;;;;;17.22;58.86;100191.81;5039091;28;45335;-77
2022/11/14 06:43:04;;;;;;;;;7.00;6.00;;;;;17.20;58.89;100188.31;5038085;28;45386;-78
2022/11/14 06:45:29;;;;;;;;;7.67;7.67;;;;;17.19;59.10;100192.72;5038902;28;45564;-78
2022/11/14 06:47:59;;;;;;;;;9.33;8.67;;;;;17.15;60.31;100205.91;5021105;28;45367;-78
2022/11/14 06:50:25;;;;;;;;;6.33;6.00;;;;;17.10;59.98;100201.50;5038878;28;45444;-77
2022/11/14 06:52:50;;;;;;;;;8.33;7.33;;;;;17.05;60.64;100205.03;5038373;28;45288;-78
2022/11/14 06:55:16;;;;;;;;;7.33;7.33;;;;;17.01;61.46;100205.91;5037878;28;45506;-78
2022/11/14 06:57:41;;;;;;;;;4.00;4.00;;;;;17.02;61.75;100220.88;5037712;28;46034;-77
2022/11/14 07:00:07;;;;;;;;;5.33;5.00;;;;;16.94;61.86;100223.53;5026512;28;45419;-77
2022/11/14 07:02:33;;;;;;;;;6.33;5.67;;;;;16.88;63.07;100220.91;5037981;28;45741;-72
2022/11/14 07:04:58;;;;;;;;;5.33;4.67;;;;;16.82;62.87;100227.06;5037841;28;45587;-73
2022/11/14 07:07:24;;;;;;;;;6.00;5.00;;;;;16.76;63.32;100231.44;5036159;28;47811;-78
2022/11/14 07:09:50;;;;;;;;;7.00;6.67;;;;;16.72;63.95;100232.31;5037862;28;45552;-77
2022/11/14 07:12:15;;;;;;;;;6.33;6.00;;;;;16.64;63.23;100243.75;5028183;28;45411;-77
2022/11/14 07:14:41;;;;;;;;;7.00;7.00;;;;;16.57;64.52;100246.38;5037714;28;45426;-77
2022/11/14 07:17:06;;;;;;;;;6.00;6.00;;;;;16.55;64.72;100261.31;5037682;28;45475;-77
2022/11/14 07:19:32;;;;;;;;;10.00;9.75;;;;;16.56;64.34;100268.34;5020017;28;45495;-78
2022/11/14 07:21:57;;;;;;;;;8.00;7.00;;;;;16.57;64.82;100281.53;5037992;28;45661;-77
2022/11/14 07:24:23;;;;;;;;;6.00;6.00;;;;;16.57;64.64;100292.06;5037916;28;46053;-77
2022/11/14 07:26:48;;;;;;;;;6.50;6.00;;;;;16.51;64.78;100292.06;5037311;28;46096;-77
2022/11/14 07:29:14;;;;;;;;;9.00;8.75;;;;;16.53;65.84;100307.91;5037439;28;45603;-77
2022/11/14 07:31:39;;;;;;;;;9.00;8.00;;;;;16.48;66.01;100302.63;5037115;28;45344;-76
2022/11/14 07:34:05;;;;;;;;;6.00;6.00;;;;;16.41;65.48;100288.56;5036524;28;45520;-77
2022/11/14 07:36:30;;;;;;;;;6.67;6.00;;;;;16.49;64.76;100307.91;5036540;28;45707;-78
2022/11/14 07:38:56;;;;;;;;;3.00;2.25;;;;;16.40;65.21;100294.69;5036679;28;45507;-78
2022/11/14 07:41:22;;;;;;;;;8.00;7.67;;;;;16.41;66.50;100309.66;5036612;28;45420;-78
2022/11/14 07:43:48;;;;;;;;;8.00;6.00;;;;;16.34;66.56;100320.16;5036742;28;45498;-77
2022/11/14 07:46:16;;;;;;;;;7.00;6.00;;;;;16.33;66.61;100319.25;5036397;28;45371;-77
2022/11/14 07:48:42;;;;;;;;;5.67;5.33;;;;;16.33;67.17;100324.53;5036366;28;46109;-78
2022/11/14 07:51:14;;;;;;;;;6.33;6.33;;;;;16.32;66.88;100327.19;5018417;28;45562;-77
2022/11/14 07:53:39;;;;;;;;;6.67;6.67;;;;;16.34;67.12;100325.44;5034220;28;45412;-78
2022/11/14 07:56:10;;;;;;;;;4.33;4.33;;;;;16.34;67.74;100325.44;5036025;28;46028;-76
2022/11/14 07:58:39;;;;;;;;;5.00;5.00;;;;;16.29;67.34;100315.78;5036043;28;45443;-78
2022/11/14 08:01:06;;;;;;;;;5.00;4.67;;;;;16.34;67.29;100325.44;5036210;28;45493;-77
2022/11/14 08:03:32;;;;;;;;;6.67;6.67;;;;;16.38;66.65;100333.34;5036469;28;45619;-76
2022/11/14 08:06:12;;;;;;;;;8.67;8.33;;;;;16.39;66.80;100332.47;5035748;28;45541;-77
2022/11/14 08:08:37;;;;;;;;;7.67;7.67;;;;;16.43;66.91;100329.00;5033145;28;45657;-77
2022/11/14 08:11:03;;;;;;;;;6.00;6.00;;;;;16.40;67.50;100320.19;5018171;28;45446;-78
2022/11/14 08:13:29;;;;;;;;;5.67;5.33;;;;;16.39;67.15;100326.31;5036498;28;45394;-74
2022/11/14 08:15:55;;;;;;;;;5.33;5.00;;;;;16.50;67.11;100345.69;5035876;28;45372;-74
2022/11/14 08:18:21;;;;;;;;;7.00;7.00;;;;;16.55;66.83;100346.56;5035806;28;45411;-74
2022/11/14 08:20:47;;;;;;;;;6.67;5.67;;;;;16.57;67.11;100351.84;5035848;28;45499;-73
2022/11/14 08:23:13;;;;;;;;;5.00;5.00;;;;;16.63;67.63;100363.31;5035921;28;45485;-73
2022/11/14 08:25:39;;;;;;;;;5.67;5.67;;;;;16.66;67.75;100362.44;5041513;28;45911;-73
2022/11/14 08:28:04;;;;;;;;;10.00;8.00;;;;;16.66;68.26;100357.16;5029452;28;45531;-74
2022/11/14 08:30:30;;;;;;;;;9.67;8.67;;;;;16.70;67.85;100367.69;5045637;28;45577;-74
2022/11/14 08:32:56;;;;;;;;;2.67;2.67;;;;;16.71;67.89;100368.56;5047561;28;45507;-75
2022/11/14 08:35:22;;;;;;;;;3.00;3.00;;;;;16.70;67.76;100366.84;5049701;28;45460;-73
2022/11/14 08:37:47;;;;;;;;;3.00;2.00;;;;;16.76;68.41;100377.41;5054753;28;45472;-73
2022/11/14 08:40:15;;;;;;;;;2.33;2.33;;;;;16.74;68.65;100386.19;5056675;28;45327;-73
2022/11/14 08:42:40;;;;;;;;;2.33;2.00;;;;;16.72;68.96;100386.19;5057181;28;45466;-75
2022/11/14 08:45:06;;;;;;;;;3.00;3.00;;;;;16.74;69.10;100396.75;5057218;28;46046;-73
2022/11/14 08:47:32;;;;;;;;;1.67;1.67;;;;;16.68;69.78;100392.31;5057719;28;45470;-73
2022/11/14 08:49:57;;;;;;;;;4.00;4.00;;;;;16.73;69.59;100401.13;5057370;28;45346;-73
2022/11/14 08:52:23;;;;;;;;;5.00;4.00;;;;;16.60;70.01;100376.47;5057253;28;45299;-72
2022/11/14 08:54:48;;;;;;;;;6.00;6.00;;;;;16.65;70.18;100400.22;5057227;28;46251;-73
2022/11/14 08:57:14;;;;;;;;;5.00;4.00;;;;;16.65;69.83;100408.13;5057207;28;45359;-78
2022/11/14 08:59:41;;;;;;;;;1.67;1.67;;;;;16.70;70.21;100420.47;5057332;28;45237;-76
2022/11/14 09:02:13;;;;;;;;;4.00;3.00;;;;;16.70;70.85;100417.81;5057447;28;45298;-73
2022/11/14 09:04:39;;;;;;;;;2.33;2.33;;;;;16.75;70.53;100420.50;5057028;28;45391;-77
2022/11/14 09:07:05;;;;;;;;;3.00;3.00;;;;;16.77;70.90;100423.09;5034575;28;45470;-77
2022/11/14 09:09:31;;;;;;;;;2.00;2.00;;;;;16.74;71.53;100424.00;5035848;28;45418;-79
2022/11/14 09:11:57;;;;;;;;;2.00;2.00;;;;;16.63;70.93;100417.78;5036224;28;45422;-79
2022/11/14 09:14:23;;;;;;;;;2.00;2.00;;;;;16.65;70.94;100427.50;5018519;28;46941;-73
2022/11/14 09:16:48;;;;;;;;;5.00;4.00;;;;;16.67;71.14;100430.13;5036605;28;45487;-76
2022/11/14 09:19:14;;;;;;;;;0.00;0.00;;;;;16.42;71.71;100424.75;5018608;28;45466;-76
2022/11/14 09:21:40;;;;;;;;;0.00;0.00;;;;;16.40;71.12;100434.41;5036385;28;46437;-76
2022/11/14 09:24:06;;;;;;;;;0.00;0.00;;;;;16.16;72.00;100437.81;5040099;28;45481;-76
2022/11/14 09:26:31;;;;;;;;;0.00;0.00;;;;;16.15;71.78;100420.22;5040098;28;45393;-76
2022/11/14 09:28:57;;;;;;;;;0.00;0.00;;;;;16.25;71.41;100435.25;5039815;28;45556;-77
2022/11/14 09:31:26;;;;;;;;;2.67;2.00;;;;;16.25;71.40;100437.88;5039865;28;45384;-77
2022/11/14 09:33:51;;;;;;;;;0.00;0.00;;;;;16.32;70.95;100449.31;5039677;28;45395;-77
2022/11/14 09:36:17;;;;;;;;;0.00;0.00;;;;;16.16;71.85;100451.00;5038466;28;45471;-78
2022/11/14 09:38:44;;;;;;;;;1.00;1.00;;;;;16.07;72.16;100451.81;5038987;28;45412;-77
2022/11/14 09:41:18;;;;;;;;;0.00;0.00;;;;;16.01;72.51;100458.81;5039519;28;45173;-77
2022/11/14 09:44:28;;;;;;;;;0.00;0.00;;;;;15.97;72.90;100462.28;5045754;28;45538;-77
2022/11/14 09:47:15;;;;;;;;;0.00;0.00;;;;;15.84;73.71;100479.78;5049591;28;45609;-77
2022/11/14 09:49:45;;;;;;;;;0.00;0.00;;;;;15.76;73.70;100478.84;5019425;28;45585;-76
2022/11/14 09:52:29;;;;;;;;;0.00;0.00;;;;;15.88;73.49;100490.34;5019682;28;45432;-76
2022/11/14 09:55:01;;;;;;;;;1.00;1.00;;;;;15.91;73.24;100500.88;5019213;28;45405;-76
2022/11/14 09:57:28;;;;;;;;;0.00;0.00;;;;;15.91;73.21;100494.75;5019340;28;45356;-76
2022/11/14 09:59:54;;;;;;;;;0.00;0.00;;;;;15.91;72.80;100485.06;5019260;28;45495;-79
2022/11/14 10:02:40;;;;;;;;;0.00;0.00;;;;;15.97;72.50;100489.50;5019453;28;45445;-76
2022/11/14 10:05:41;;;;;;;;;0.00;0.00;;;;;16.09;72.22;100478.19;5017919;28;45535;-75
2022/11/14 10:08:12;;;;;;;;;0.00;0.00;;;;;16.16;71.62;100463.31;5019686;28;45459;-75
2022/11/14 10:10:47;;;;;;;;;0.00;0.00;;;;;16.09;71.36;100473.81;5019138;28;45431;-76
2022/11/14 10:13:27;;;;;;;;;0.00;0.00;;;;;16.04;71.40;100472.88;5019411;28;45442;-82
2022/11/14 10:16:31;;;;;;;;;0.00;0.00;;;;;16.11;71.58;100471.16;5041386;28;46069;-78
2022/11/14 10:19:14;;;;;;;;;0.00;0.00;;;;;16.13;71.75;100479.97;5063511;28;45601;-75
2022/11/14 10:22:04;;;;;;;;;0.00;0.00;;;;;16.09;72.08;100478.19;5038439;28;45532;-70
2022/11/14 10:24:55;;;;;;;;;0.00;0.00;;;;;16.08;72.05;100479.06;5046549;28;45399;-76
2022/11/14 10:27:32;;;;;;;;;0.00;0.00;;;;;16.05;71.79;100486.94;5048944;28;46090;-76
2022/11/14 10:30:17;;;;;;;;;0.00;0.00;;;;;16.06;71.80;100510.66;5048452;28;45514;-75
2022/11/14 10:32:56;;;;;;;;;0.00;0.00;;;;;16.07;71.65;100504.50;5043459;28;45461;-75
2022/11/14 10:35:30;;;;;;;;;0.00;0.00;;;;;16.09;71.94;100499.25;5038693;28;45490;-76
2022/11/14 10:38:06;;;;;;;;;1.00;0.00;;;;;16.07;71.66;100488.69;5039435;28;45497;-76
2022/11/14 10:40:39;;;;;;;;;0.00;0.00;;;;;16.09;71.70;100487.00;5039583;28;45320;-76
2022/11/14 10:43:33;;;;;;;;;0.00;0.00;;;;;16.12;72.20;100487.88;5039663;28;45415;-76
2022/11/14 10:46:22;;;;;;;;;0.00;0.00;;;;;16.16;71.86;100493.16;5039628;28;45498;-75
2022/11/14 10:48:51;;;;;;;;;0.00;0.00;;;;;16.15;71.97;100499.28;5039256;28;45327;-74
2022/11/14 10:51:37;;;;;;;;;0.00;0.00;;;;;16.07;71.29;100501.00;5039127;28;45502;-76
2022/11/14 10:54:12;;;;;;;;;1.00;1.00;;;;;15.92;72.75;100504.44;5039193;28;45219;-76
2022/11/14 10:56:50;;;;;;;;;0.00;0.00;;;;;15.89;72.13;100501.75;5021903;28;45337;-76
2022/11/14 10:59:16;;;;;;;;;0.00;0.00;;;;;15.95;72.30;100501.78;5038995;28;45524;-72
2022/11/14 11:01:56;;;;;;;;;0.00;0.00;;;;;15.97;72.61;100501.81;5038973;28;45517;-70
2022/11/14 11:04:32;;;;;;;;;0.00;0.00;;;;;15.91;72.22;100492.97;5039142;28;45466;-76
2022/11/14 11:07:07;;;;;;;;;0.00;0.00;;;;;15.95;72.00;100487.75;5038710;28;45348;-76
2022/11/14 11:12:44;;;;;;;;;0.00;0.00;;;;;15.93;72.86;100481.59;5038938;28;45445;-71
2022/11/14 11:15:18;;;;;;;;;0.00;0.00;;;;;15.80;71.88;100470.09;5039372;28;45253;-72
2022/11/14 11:17:56;;;;;;;;;1.00;1.00;;;;;15.81;71.87;100487.66;5039077;28;45633;-73
2022/11/14 11:20:32;;;;;;;;;1.67;0.67;;;;;15.83;71.91;100484.16;5038321;28;45463;-75
2022/11/14 11:23:05;;;;;;;;;0.00;0.00;;;;;15.82;70.46;100478.88;5038767;28;45179;-72
2022/11/14 11:25:33;;;;;;;;;0.00;0.00;;;;;15.79;70.54;100485.00;5021064;28;45367;-75
2022/11/14 11:28:06;;;;;;;;;0.00;0.00;;;;;15.63;71.37;100476.06;5038954;28;45206;-74
2022/11/14 11:30:32;;;;;;;;;0.00;0.00;;;;;15.69;71.09;100485.75;5038658;28;45413;-74
2022/11/14 11:33:28;;;;;;;;;1.00;1.00;;;;;15.58;71.77;100488.31;5020674;28;45266;-72